Dies, Texas
Current Conditions -  °F | °C
As of 8:15 PM on Friday 19 Dec 2014 (Local Time) from KJAS Reporting Station
Overcast Overcast  
Wind Chill:   Ceiling: 800
Heat Index:   Visibility: 10mi
Dew Point:   Wind: 7mph
Humidity: 93%   Direction: 20°NNE
Pressure: 30.14"   Gusts: NA
Location:  30.7643°N, 94.4448°W
Report Text: KJAS 200215Z AUTO 02006KT 10SM OVC008 09/08 A3014 RMK AO2 T00900080
Loading
Personal Weather Stations






























Interactive Weather Map New forecast layout! Learn more

10-Day Weather Forecast

Advertisements
Track Severe Weather on mobile